Time;durP1;ratioP1;P1;durP2;ratioP2;P2;SDS_P1;SDS_P2;PMS_P1;PMS_P2;Temp;Humidity;BMP_temperature;BMP_pressure;BME280_temperature;BME280_humidity;BME280_pressure;Samples;Min_cycle;Max_cycle;Signal;HPM_P1;HPM_P2
2024/02/22 00:01:47;;;;;;;17.13;6.65;;;;;;;3.10;78.83;94394.63;5005842;28;20308;-74
2024/02/22 00:04:13;;;;;;;20.48;7.70;;;;;;;3.06;79.05;94396.19;5005916;28;20093;-76
2024/02/22 00:06:39;;;;;;;18.50;6.55;;;;;;;3.05;79.13;94397.22;5006714;28;20033;-77
2024/02/22 00:09:05;;;;;;;12.52;5.68;;;;;;;3.05;79.28;94397.22;5008227;28;20022;-76
2024/02/22 00:11:30;;;;;;;9.75;4.50;;;;;;;3.09;79.44;94402.78;5006064;28;20024;-76
2024/02/22 00:13:56;;;;;;;9.30;4.35;;;;;;;3.09;79.33;94395.66;5005975;28;20339;-76
2024/02/22 00:16:22;;;;;;;11.00;4.55;;;;;;;3.12;79.42;94389.13;5006012;28;20090;-77
2024/02/22 00:18:47;;;;;;;7.80;4.47;;;;;;;3.03;79.16;94388.00;5005804;28;20026;-76
2024/02/22 00:21:13;;;;;;;11.40;4.70;;;;;;;2.95;79.59;94382.16;5005717;28;20025;-76
2024/02/22 00:23:39;;;;;;;11.60;5.65;;;;;;;2.96;79.55;94388.22;5005878;28;20030;-77
2024/02/22 00:26:05;;;;;;;12.45;5.28;;;;;;;3.00;79.56;94390.09;5005569;28;20030;-75
2024/02/22 00:28:31;;;;;;;16.90;5.93;;;;;;;3.03;79.03;94382.72;5005565;28;20190;-75
2024/02/22 00:30:56;;;;;;;21.63;6.45;;;;;;;3.05;79.00;94380.63;5005376;28;20330;-75
2024/02/22 00:33:21;;;;;;;17.50;7.10;;;;;;;3.00;78.82;94376.91;5005470;28;20030;-76
2024/02/22 00:35:47;;;;;;;19.88;7.25;;;;;;;2.94;78.96;94379.78;5005176;28;20372;-75
2024/02/22 00:38:12;;;;;;;15.02;6.40;;;;;;;2.89;78.88;94379.72;5005211;28;20049;-75
2024/02/22 00:40:37;;;;;;;18.20;6.45;;;;;;;2.83;79.15;94368.38;5005406;28;20086;-75
2024/02/22 00:43:03;;;;;;;17.35;6.40;;;;;;;2.83;79.07;94368.38;5005264;28;20028;-75
2024/02/22 00:45:29;;;;;;;15.50;6.15;;;;;;;2.85;79.09;94365.47;5005199;28;20022;-75
2024/02/22 00:47:58;;;;;;;15.32;6.30;;;;;;;2.84;79.32;94361.25;5005078;28;20030;-75
2024/02/22 00:50:24;;;;;;;17.88;6.65;;;;;;;2.86;79.07;94373.13;5005039;28;20209;-75
2024/02/22 00:52:50;;;;;;;13.73;7.55;;;;;;;2.86;78.72;94365.22;5005159;28;20022;-76
2024/02/22 00:55:16;;;;;;;7.55;4.05;;;;;;;2.80;78.53;94358.34;5005243;28;20037;-76
2024/02/22 00:57:41;;;;;;;9.95;4.53;;;;;;;2.73;78.86;94353.28;5005067;28;20018;-75
2024/02/22 01:00:11;;;;;;;14.10;4.25;;;;;;;2.70;78.82;94353.78;5005140;28;20049;-77
2024/02/22 01:02:39;;;;;;;12.27;4.40;;;;;;;2.71;78.71;94350.13;5005042;28;20026;-77
2024/02/22 01:05:05;;;;;;;14.13;5.25;;;;;;;2.67;78.61;94348.25;5005005;28;20018;-77
2024/02/22 01:07:33;;;;;;;13.40;5.35;;;;;;;2.66;78.82;94344.00;5004684;28;20025;-76
2024/02/22 01:09:59;;;;;;;12.82;5.10;;;;;;;2.64;78.68;94341.63;5004820;28;20026;-76
2024/02/22 01:12:24;;;;;;;17.25;4.88;;;;;;;2.63;78.73;94336.63;5004224;28;20339;-75
2024/02/22 01:14:50;;;;;;;10.07;4.05;;;;;;;2.63;78.97;94344.53;5004409;28;20360;-76
2024/02/22 01:17:16;;;;;;;11.35;4.88;;;;;;;2.59;78.63;94336.34;5004630;28;20331;-76
2024/02/22 01:19:44;;;;;;;8.60;3.53;;;;;;;2.60;78.32;94328.16;5004871;28;20022;-76
2024/02/22 01:22:10;;;;;;;7.43;2.75;;;;;;;2.56;78.40;94336.81;5005076;28;20076;-77
2024/02/22 01:24:35;;;;;;;7.00;3.13;;;;;;;2.54;78.74;94337.06;5004472;28;20026;-77
2024/02/22 01:27:01;;;;;;;3.70;1.52;;;;;;;2.47;78.35;94339.13;5004911;28;20093;-77
2024/02/22 01:29:27;;;;;;;4.00;1.65;;;;;;;2.44;78.61;94336.19;5004398;28;20085;-77
2024/02/22 01:31:52;;;;;;;3.47;2.03;;;;;;;2.42;78.79;94323.28;5004380;28;20029;-77
2024/02/22 01:34:17;;;;;;;3.35;1.90;;;;;;;2.40;79.08;94322.72;5004247;28;20198;-77
2024/02/22 01:36:43;;;;;;;3.70;1.75;;;;;;;2.41;78.84;94319.84;5004310;28;20022;-77
2024/02/22 01:39:09;;;;;;;4.95;1.95;;;;;;;2.38;79.23;94327.44;5004641;28;20026;-77
2024/02/22 01:41:35;;;;;;;6.07;2.58;;;;;;;2.37;79.30;94318.78;5004402;28;20030;-77
2024/02/22 01:44:01;;;;;;;5.35;2.47;;;;;;;2.35;79.23;94315.59;5004497;28;20318;-77
2024/02/22 01:46:27;;;;;;;4.53;2.33;;;;;;;2.37;79.11;94325.88;5004245;28;20045;-77
2024/02/22 01:48:53;;;;;;;5.70;2.97;;;;;;;2.37;79.04;94323.25;5004331;28;20228;-78
2024/02/22 01:51:19;;;;;;;4.57;2.28;;;;;;;2.38;79.17;94314.28;5004137;28;20030;-77
2024/02/22 01:53:45;;;;;;;5.50;2.67;;;;;;;2.41;78.77;94311.19;5004508;28;20077;-78
2024/02/22 01:56:11;;;;;;;4.45;2.17;;;;;;;2.37;78.80;94297.72;5004277;28;20026;-78
2024/02/22 01:58:38;;;;;;;4.57;2.20;;;;;;;2.37;78.45;94310.09;5004931;28;20033;-77
2024/02/22 02:01:04;;;;;;;3.75;2.35;;;;;;;2.33;78.30;94309.00;5004830;28;20032;-78
2024/02/22 02:03:30;;;;;;;3.45;2.08;;;;;;;2.28;78.62;94307.13;5004629;28;20026;-78
2024/02/22 02:05:56;;;;;;;4.15;2.05;;;;;;;2.25;78.72;94298.94;5004216;28;20044;-78
2024/02/22 02:08:22;;;;;;;3.33;1.98;;;;;;;2.24;78.81;94297.34;5004113;28;20030;-78
2024/02/22 02:10:47;;;;;;;4.68;2.20;;;;;;;2.23;78.75;94296.56;5003954;28;20040;-76
2024/02/22 02:13:13;;;;;;;5.93;2.38;;;;;;;2.23;78.57;94290.50;5003657;28;20032;-76
2024/02/22 02:15:38;;;;;;;6.30;3.15;;;;;;;2.22;78.69;94297.63;5004136;28;20049;-76
2024/02/22 02:18:04;;;;;;;6.05;3.35;;;;;;;2.14;78.91;94296.22;5003821;28;20313;-76
2024/02/22 02:20:40;;;;;;;7.50;3.80;;;;;;;2.11;78.98;94282.78;5004224;28;20044;-76
2024/02/22 02:23:19;;;;;;;10.18;4.05;;;;;;;2.10;78.77;94278.56;5004045;28;20228;-77
2024/02/22 02:25:45;;;;;;;9.38;4.03;;;;;;;2.04;79.14;94275.09;5002746;28;20325;-76
2024/02/22 02:28:10;;;;;;;10.18;4.45;;;;;;;2.00;79.35;94274.00;5003724;28;20040;-77
2024/02/22 02:30:35;;;;;;;10.20;5.07;;;;;;;2.00;79.48;94279.25;5003363;28;20089;-77
2024/02/22 02:33:01;;;;;;;9.73;5.07;;;;;;;2.01;79.67;94280.84;5003448;28;20278;-77
2024/02/22 02:35:26;;;;;;;11.00;4.47;;;;;;;2.02;79.75;94271.91;5003433;28;20056;-76
2024/02/22 02:37:52;;;;;;;12.57;5.15;;;;;;;2.03;79.78;94270.06;5003448;28;20030;-77
2024/02/22 02:40:17;;;;;;;12.13;4.40;;;;;;;2.06;79.66;94280.91;5003631;28;20038;-77
2024/02/22 02:42:42;;;;;;;8.48;4.50;;;;;;;2.06;79.62;94277.47;5003648;28;20101;-76
2024/02/22 02:45:08;;;;;;;8.20;4.00;;;;;;;2.04;79.50;94276.94;5003545;28;20038;-76
2024/02/22 02:47:34;;;;;;;7.25;3.97;;;;;;;1.89;79.66;94273.09;5003933;28;20045;-77
2024/02/22 02:50:00;;;;;;;8.45;3.78;;;;;;;1.85;79.90;94277.25;5003589;28;20034;-77
2024/02/22 02:52:25;;;;;;;6.03;3.35;;;;;;;1.88;79.96;94268.91;5003578;28;20224;-77
2024/02/22 02:54:50;;;;;;;6.05;3.22;;;;;;;1.90;79.70;94277.31;5003136;28;20058;-76
2024/02/22 02:57:16;;;;;;;7.75;3.03;;;;;;;1.88;79.75;94281.25;5002274;28;20064;-76
2024/02/22 02:59:42;;;;;;;7.85;3.45;;;;;;;1.83;79.84;94286.44;5003362;28;20098;-77
2024/02/22 03:02:07;;;;;;;7.97;3.50;;;;;;;1.79;79.68;94286.13;5003836;28;20073;-76
2024/02/22 03:04:32;;;;;;;5.35;2.85;;;;;;;1.83;79.56;94278.56;5003254;28;20232;-77
2024/02/22 03:06:58;;;;;;;7.15;3.78;;;;;;;1.84;79.32;94272.28;5003468;28;20037;-76
2024/02/22 03:09:24;;;;;;;7.03;3.00;;;;;;;1.85;79.17;94281.72;5003230;28;20309;-77
2024/02/22 03:11:49;;;;;;;4.32;2.50;;;;;;;1.80;79.45;94278.00;5003026;28;20030;-77
2024/02/22 03:14:15;;;;;;;8.07;4.10;;;;;;;1.75;79.73;94280.59;5003089;28;20098;-76
2024/02/22 03:16:40;;;;;;;8.45;4.85;;;;;;;1.71;80.95;94286.56;5003422;28;20022;-77
2024/02/22 03:19:06;;;;;;;8.23;4.45;;;;;;;1.70;81.96;94271.88;5003328;28;20026;-77
2024/02/22 03:21:31;;;;;;;8.80;4.70;;;;;;;1.71;82.42;94282.13;5003133;28;20030;-77
2024/02/22 03:23:57;;;;;;;10.50;4.38;;;;;;;1.76;82.56;94279.53;5003092;28;20030;-77
2024/02/22 03:26:25;;;;;;;6.07;3.13;;;;;;;1.78;82.13;94285.34;5001967;28;20228;-77
2024/02/22 03:28:53;;;;;;;6.25;3.70;;;;;;;1.71;82.32;94287.41;5002304;28;20018;-77
2024/02/22 03:31:19;;;;;;;5.38;3.28;;;;;;;1.57;83.65;94286.19;5002102;28;20260;-76
2024/02/22 03:33:44;;;;;;;8.05;3.88;;;;;;;1.60;84.00;94283.06;5002741;28;20133;-77
2024/02/22 03:36:10;;;;;;;12.38;5.10;;;;;;;1.59;84.25;94278.84;5004194;28;20049;-77
2024/02/22 03:38:39;;;;;;;8.60;4.18;;;;;;;1.65;84.78;94274.44;5006638;28;20029;-77
2024/02/22 03:41:04;;;;;;;9.68;4.43;;;;;;;1.71;84.57;94273.44;5006674;28;20089;-77
2024/02/22 03:43:30;;;;;;;9.02;4.63;;;;;;;1.71;84.18;94270.81;5006692;28;20264;-77
2024/02/22 03:45:56;;;;;;;12.95;5.05;;;;;;;1.74;83.80;94272.97;5006638;28;20252;-77
2024/02/22 03:48:21;;;;;;;9.15;4.70;;;;;;;1.82;83.51;94263.84;5006568;28;20039;-77
2024/02/22 03:50:47;;;;;;;11.55;4.70;;;;;;;1.77;83.18;94257.50;5006293;28;20022;-77
2024/02/22 03:53:12;;;;;;;7.97;4.05;;;;;;;1.81;82.62;94263.03;5006419;28;20038;-77
2024/02/22 03:55:37;;;;;;;8.68;4.28;;;;;;;1.83;82.11;94265.41;5006176;28;20034;-77
2024/02/22 03:58:06;;;;;;;10.13;4.18;;;;;;;1.81;81.49;94270.91;5005449;28;20088;-77
2024/02/22 04:00:33;;;;;;;7.43;3.92;;;;;;;1.83;81.10;94265.41;5005562;28;20022;-77
2024/02/22 04:02:58;;;;;;;10.57;3.95;;;;;;;1.82;81.01;94253.31;5004898;28;20042;-77
2024/02/22 04:05:24;;;;;;;9.40;5.28;;;;;;;1.78;80.86;94259.06;5005813;28;20029;-78
2024/02/22 04:07:50;;;;;;;9.63;5.15;;;;;;;1.78;80.75;94255.66;5005088;28;20381;-77
2024/02/22 04:10:15;;;;;;;8.48;4.57;;;;;;;1.77;80.19;94252.25;5006072;28;20026;-77
2024/02/22 04:12:41;;;;;;;7.22;3.88;;;;;;;1.77;79.80;94259.31;5006022;28;20018;-78
2024/02/22 04:15:07;;;;;;;8.63;4.50;;;;;;;1.72;79.50;94256.66;5005766;28;20056;-78
2024/02/22 04:17:32;;;;;;;11.38;4.88;;;;;;;1.69;80.06;94260.56;5005943;28;20260;-78
2024/02/22 04:19:59;;;;;;;11.23;3.97;;;;;;;1.70;79.35;94256.88;5006012;28;20030;-78
2024/02/22 04:22:25;;;;;;;8.18;3.72;;;;;;;1.66;79.34;94261.03;5005517;28;20317;-77
2024/02/22 04:24:50;;;;;;;9.52;4.32;;;;;;;1.58;79.50;94261.50;5005043;28;20023;-77
2024/02/22 04:27:16;;;;;;;8.55;4.43;;;;;;;1.57;79.65;94257.28;5005749;28;20038;-76
2024/02/22 04:29:42;;;;;;;12.15;5.32;;;;;;;1.54;79.95;94257.78;5005647;28;20335;-76
2024/02/22 04:32:07;;;;;;;9.27;4.65;;;;;;;1.51;80.06;94258.28;5005930;28;20026;-77
2024/02/22 04:34:33;;;;;;;9.82;4.80;;;;;;;1.57;80.11;94257.28;5005449;28;20093;-76
2024/02/22 04:36:58;;;;;;;9.02;4.47;;;;;;;1.63;79.98;94253.69;5005454;28;20029;-76
2024/02/22 04:39:24;;;;;;;11.77;5.22;;;;;;;1.58;80.37;94251.75;5005501;28;20093;-77
2024/02/22 04:41:49;;;;;;;15.45;5.50;;;;;;;1.63;80.41;94255.47;5005420;28;20018;-77
2024/02/22 04:44:14;;;;;;;13.82;5.38;;;;;;;1.67;80.34;94252.13;5005175;28;20034;-77
2024/02/22 04:46:40;;;;;;;12.13;6.07;;;;;;;1.66;80.28;94250.53;5005251;28;20030;-78
2024/02/22 04:49:06;;;;;;;12.38;5.63;;;;;;;1.70;80.33;94250.84;5004574;28;20070;-78
2024/02/22 04:51:32;;;;;;;14.93;7.07;;;;;;;1.69;80.27;94250.06;5005530;28;20085;-78
2024/02/22 04:53:58;;;;;;;18.67;6.10;;;;;;;1.68;80.26;94245.81;5005332;28;20050;-79
2024/02/22 04:56:23;;;;;;;9.02;5.88;;;;;;;1.68;80.25;94247.66;5005559;28;20069;-78
2024/02/22 04:58:49;;;;;;;10.23;6.00;;;;;;;1.63;80.48;94243.16;5005203;28;20022;-77
2024/02/22 05:01:14;;;;;;;14.02;4.90;;;;;;;1.68;80.50;94243.19;5005064;28;20090;-77
2024/02/22 05:03:40;;;;;;;11.88;5.68;;;;;;;1.70;80.75;94238.50;5005319;28;20025;-77
2024/02/22 05:06:06;;;;;;;14.18;6.10;;;;;;;1.73;80.71;94240.63;5004654;28;20029;-76
2024/02/22 05:08:31;;;;;;;16.60;7.53;;;;;;;1.74;80.74;94236.94;5004857;28;20025;-76
2024/02/22 05:10:56;;;;;;;14.77;7.35;;;;;;;1.75;80.42;94246.44;5004866;28;20367;-78
2024/02/22 05:13:22;;;;;;;13.35;6.75;;;;;;;1.72;80.44;94239.03;5004759;28;20022;-77
2024/02/22 05:15:48;;;;;;;18.88;7.45;;;;;;;1.72;80.41;94243.50;5005138;28;20329;-77
2024/02/22 05:18:13;;;;;;;13.57;6.45;;;;;;;1.74;80.53;94244.84;5004789;28;20018;-77
2024/02/22 05:20:39;;;;;;;18.38;8.55;;;;;;;1.75;80.68;94250.88;5004946;28;20018;-78
2024/02/22 05:23:06;;;;;;;18.75;8.65;;;;;;;1.78;80.62;94261.69;5004703;28;20026;-76
2024/02/22 05:25:31;;;;;;;15.82;8.25;;;;;;;1.85;80.19;94255.44;5004115;28;20045;-76
2024/02/22 05:27:57;;;;;;;13.93;8.27;;;;;;;1.85;80.32;94260.69;5004364;28;20077;-76
2024/02/22 05:30:23;;;;;;;15.63;6.93;;;;;;;1.80;80.38;94271.97;5003214;28;20022;-76
2024/02/22 05:32:48;;;;;;;14.73;7.20;;;;;;;1.75;80.33;94270.09;5004112;28;20313;-76
2024/02/22 05:35:14;;;;;;;15.73;6.95;;;;;;;1.75;80.82;94279.78;5004211;28;20022;-76
2024/02/22 05:37:39;;;;;;;19.80;9.75;;;;;;;1.83;80.64;94279.34;5004280;28;20093;-76
2024/02/22 05:40:08;;;;;;;18.52;9.38;;;;;;;1.87;80.50;94285.69;5003880;28;20022;-76
2024/02/22 05:42:33;;;;;;;20.92;11.38;;;;;;;1.92;80.22;94284.97;5004106;28;20033;-76
2024/02/22 05:44:59;;;;;;;17.90;9.18;;;;;;;1.98;80.19;94281.34;5004203;28;20041;-77
2024/02/22 05:47:25;;;;;;;19.17;9.23;;;;;;;1.99;79.67;94285.56;5004262;28;20055;-76
2024/02/22 05:49:50;;;;;;;13.98;8.65;;;;;;;1.97;80.14;94277.13;5003941;28;20033;-77
2024/02/22 05:52:15;;;;;;;15.55;7.68;;;;;;;1.96;80.42;94272.91;5003777;28;20045;-77
2024/02/22 05:54:41;;;;;;;16.20;8.57;;;;;;;1.96;80.22;94275.53;5004203;28;20042;-78
2024/02/22 05:57:07;;;;;;;15.00;7.90;;;;;;;2.02;80.23;94274.56;5004195;28;20018;-77
2024/02/22 05:59:32;;;;;;;11.85;6.70;;;;;;;2.05;80.23;94281.13;5003114;28;20328;-78
2024/02/22 06:01:58;;;;;;;17.00;7.00;;;;;;;2.10;80.32;94281.19;5004466;28;20018;-78
2024/02/22 06:04:23;;;;;;;19.17;6.57;;;;;;;2.10;80.87;94281.19;5004198;28;20313;-78
2024/02/22 06:06:49;;;;;;;15.18;6.32;;;;;;;2.10;81.24;94291.72;5003775;28;20042;-79
2024/02/22 06:09:15;;;;;;;14.48;6.38;;;;;;;2.15;81.29;94289.91;5003192;28;20022;-79
2024/02/22 06:11:40;;;;;;;17.52;7.28;;;;;;;2.17;81.76;94292.28;5019667;28;20056;-79
2024/02/22 06:14:05;;;;;;;18.50;8.07;;;;;;;2.24;82.02;94292.91;5004374;28;20343;-78
2024/02/22 06:16:31;;;;;;;22.15;8.57;;;;;;;2.30;81.98;94284.00;5003786;28;20042;-79
2024/02/22 06:18:56;;;;;;;21.27;8.30;;;;;;;2.36;82.13;94301.41;5004182;28;20337;-78
2024/02/22 06:21:22;;;;;;;28.38;10.40;;;;;;;2.36;82.29;94285.63;5003924;28;20155;-80
2024/02/22 06:23:47;;;;;;;25.85;9.80;;;;;;;2.45;82.26;94293.84;5004030;28;20018;-77
2024/02/22 06:26:13;;;;;;;26.20;10.10;;;;;;;2.50;82.03;94280.72;5003696;28;20045;-77
2024/02/22 06:28:39;;;;;;;23.25;9.68;;;;;;;2.58;81.77;94288.16;5003968;28;20022;-78
2024/02/22 06:31:04;;;;;;;21.92;9.43;;;;;;;2.64;81.26;94294.25;5003948;28;20022;-78
2024/02/22 06:33:32;;;;;;;19.33;8.70;;;;;;;2.71;81.08;94301.94;5003812;28;20022;-78
2024/02/22 06:35:58;;;;;;;18.75;8.45;;;;;;;2.74;81.12;94289.06;5004107;28;20225;-78
2024/02/22 06:38:23;;;;;;;21.45;8.27;;;;;;;2.78;81.09;94291.97;5003742;28;20089;-78
2024/02/22 06:40:49;;;;;;;24.90;8.82;;;;;;;2.81;81.02;94287.00;5003609;28;20090;-78
2024/02/22 06:43:16;;;;;;;27.38;8.23;;;;;;;2.81;80.97;94292.28;5003659;28;20022;-78
2024/02/22 06:45:41;;;;;;;18.15;7.13;;;;;;;2.83;81.20;94284.13;5002497;28;20085;-77
2024/02/22 06:48:07;;;;;;;15.85;7.82;;;;;;;2.94;81.09;94295.50;5003586;28;20030;-77
2024/02/22 06:50:34;;;;;;;19.77;8.52;;;;;;;2.99;80.88;94283.16;5003305;28;20034;-77
2024/02/22 06:53:00;;;;;;;18.50;8.60;;;;;;;3.06;80.58;94290.06;5003728;28;20089;-77
2024/02/22 06:55:31;;;;;;;19.52;8.77;;;;;;;3.08;80.42;94278.22;5003253;28;20050;-77
2024/02/22 06:57:57;;;;;;;17.55;8.65;;;;;;;3.13;80.60;94287.97;5002234;28;20022;-78
2024/02/22 07:00:23;;;;;;;17.08;7.40;;;;;;;3.17;80.20;94286.41;5003396;28;20245;-77
2024/02/22 07:02:49;;;;;;;20.10;9.18;;;;;;;3.26;79.98;94289.34;5003549;28;20086;-76
2024/02/22 07:05:15;;;;;;;17.27;7.85;;;;;;;3.33;79.57;94295.97;5003089;28;20221;-77
2024/02/22 07:07:41;;;;;;;14.52;7.25;;;;;;;3.43;79.15;94295.22;5003403;28;20022;-77
2024/02/22 07:10:07;;;;;;;20.20;7.78;;;;;;;3.52;79.08;94298.16;5003093;28;20022;-76
2024/02/22 07:12:32;;;;;;;14.88;7.00;;;;;;;3.63;77.71;94294.53;5006514;28;20041;-76
2024/02/22 07:14:58;;;;;;;21.48;7.90;;;;;;;3.70;77.83;94294.28;5006811;28;20018;-76
2024/02/22 07:17:24;;;;;;;15.68;6.85;;;;;;;3.83;77.42;94285.88;5007011;28;20378;-76
2024/02/22 07:19:49;;;;;;;20.20;8.02;;;;;;;3.90;77.72;94288.28;5006996;28;20093;-77
2024/02/22 07:22:15;;;;;;;16.50;9.35;;;;;;;4.01;76.81;94285.41;5007091;28;20026;-76
2024/02/22 07:24:41;;;;;;;14.68;7.18;;;;;;;4.09;76.14;94289.38;5006995;28;20018;-77
2024/02/22 07:27:09;;;;;;;19.08;9.18;;;;;;;4.19;75.96;94288.56;5006865;28;20068;-76
2024/02/22 07:29:35;;;;;;;19.48;9.02;;;;;;;3.87;75.13;94286.94;5006760;28;20022;-76
2024/02/22 07:32:00;;;;;;;17.27;9.40;;;;;;;3.97;75.11;94280.91;5006754;28;20197;-76
2024/02/22 07:34:26;;;;;;;19.95;9.75;;;;;;;4.05;74.59;94282.22;5006695;28;20101;-77
2024/02/22 07:36:51;;;;;;;16.70;8.73;;;;;;;4.10;74.61;94280.41;5006709;28;20018;-78
2024/02/22 07:39:16;;;;;;;19.20;9.43;;;;;;;4.17;75.20;94280.13;5006651;28;20248;-79
2024/02/22 07:41:45;;;;;;;17.73;8.60;;;;;;;4.29;75.67;94277.25;5006932;28;20057;-81
2024/02/22 07:44:11;;;;;;;16.55;9.18;;;;;;;4.35;75.46;94271.69;5005780;28;20034;-82
2024/02/22 07:46:38;;;;;;;19.55;9.57;;;;;;;4.39;75.30;94277.25;5006590;28;20026;-83
2024/02/22 07:49:05;;;;;;;18.70;9.95;;;;;;;4.48;75.58;94275.69;5006743;28;20018;-78
2024/02/22 07:51:30;;;;;;;21.45;10.30;;;;;;;4.57;75.13;94281.22;5006470;28;20044;-80
2024/02/22 07:53:56;;;;;;;20.88;10.45;;;;;;;4.63;74.12;94280.94;5006661;28;20073;-80
2024/02/22 07:56:21;;;;;;;17.65;9.15;;;;;;;4.63;73.94;94283.59;5006227;28;20023;-79
2024/02/22 07:58:51;;;;;;;16.95;10.23;;;;;;;4.68;73.59;94279.34;5006544;28;20026;-80
2024/02/22 08:01:17;;;;;;;23.20;9.93;;;;;;;4.71;72.42;94278.84;5006645;28;20037;-80
2024/02/22 08:03:43;;;;;;;18.90;10.02;;;;;;;4.68;72.88;94279.34;5006684;28;20034;-79
2024/02/22 08:06:10;;;;;;;17.15;9.90;;;;;;;4.75;73.36;94285.16;5006772;28;20037;-81
2024/02/22 08:08:36;;;;;;;18.02;10.65;;;;;;;4.83;72.88;94284.63;5006546;28;20038;-81
2024/02/22 08:11:01;;;;;;;17.58;9.55;;;;;;;4.85;73.07;94287.03;5006492;28;20026;-81
2024/02/22 08:13:27;;;;;;;20.27;11.20;;;;;;;4.91;72.89;94291.22;5006440;28;20037;-82
2024/02/22 08:16:00;;;;;;;25.67;10.50;;;;;;;5.01;72.52;94294.63;5006411;28;20023;-82
2024/02/22 08:18:25;;;;;;;21.65;10.18;;;;;;;5.02;72.28;94296.22;5006411;28;20022;-81
2024/02/22 08:20:50;;;;;;;20.92;11.05;;;;;;;5.01;72.18;94293.84;5006168;28;20022;-79
2024/02/22 08:23:16;;;;;;;24.70;12.52;;;;;;;4.92;71.92;94280.38;5006278;28;20064;-79
2024/02/22 08:25:41;;;;;;;21.00;10.20;;;;;;;4.71;72.37;94284.13;5005174;28;20309;-79
2024/02/22 08:28:09;;;;;;;20.33;12.15;;;;;;;4.62;72.05;94283.88;5005981;28;20033;-79
2024/02/22 08:30:38;;;;;;;27.08;12.48;;;;;;;4.59;72.86;94287.03;5005988;28;20072;-78
2024/02/22 08:33:03;;;;;;;24.55;12.18;;;;;;;4.67;73.79;94289.13;5006105;28;20093;-79
2024/02/22 08:35:29;;;;;;;26.63;13.10;;;;;;;4.76;74.23;94292.03;5006090;28;20190;-81
2024/02/22 08:37:55;;;;;;;27.00;14.60;;;;;;;4.84;74.50;94294.13;5005874;28;20033;-79
2024/02/22 08:40:20;;;;;;;38.03;16.65;;;;;;;4.93;74.88;94281.19;5005581;28;20030;-80
2024/02/22 08:42:46;;;;;;;32.92;15.45;;;;;;;5.02;74.23;94284.88;5004436;28;20313;-80
2024/02/22 08:45:14;;;;;;;35.88;15.93;;;;;;;5.14;74.08;94303.84;5005831;28;20026;-79
2024/02/22 08:47:41;;;;;;;30.88;15.90;;;;;;;5.25;73.18;94282.69;5005751;28;20036;-78
2024/02/22 08:50:08;;;;;;;33.95;15.30;;;;;;;5.27;73.36;94278.75;5004618;28;20089;-75
2024/02/22 08:52:33;;;;;;;33.03;15.23;;;;;;;5.27;73.73;94281.38;5004976;28;20022;-75
2024/02/22 08:54:59;;;;;;;29.23;15.77;;;;;;;5.39;73.57;94281.06;5004843;28;20387;-76
2024/02/22 08:57:24;;;;;;;30.00;15.90;;;;;;;5.38;72.52;94277.63;5005001;28;20022;-75
2024/02/22 08:59:51;;;;;;;27.17;14.50;;;;;;;5.35;71.22;94277.38;5004875;28;20050;-75
2024/02/22 09:02:17;;;;;;;29.88;14.90;;;;;;;5.29;72.20;94284.56;5004457;28;20057;-75
2024/02/22 09:04:42;;;;;;;31.15;15.95;;;;;;;5.30;72.25;94280.03;5004896;28;20036;-75
2024/02/22 09:07:08;;;;;;;34.95;15.68;;;;;;;5.27;72.73;94285.84;5004817;28;20026;-77
2024/02/22 09:09:33;;;;;;;30.58;16.05;;;;;;;5.31;72.49;94276.34;5003445;28;20057;-76
2024/02/22 09:11:59;;;;;;;42.88;16.63;;;;;;;4.99;73.65;94278.28;5003658;28;20022;-76
2024/02/22 09:14:25;;;;;;;37.03;17.42;;;;;;;4.87;74.69;94269.84;5004622;28;20033;-76
2024/02/22 09:16:51;;;;;;;40.05;17.08;;;;;;;5.19;74.74;94268.69;5004562;28;20017;-76
2024/02/22 09:19:16;;;;;;;28.70;14.32;;;;;;;5.44;74.74;94273.13;5004800;28;20076;-76
2024/02/22 09:21:45;;;;;;;24.15;14.00;;;;;;;5.68;73.20;94267.19;5004649;28;20207;-76
2024/02/22 09:24:11;;;;;;;27.00;15.23;;;;;;;5.86;71.91;94276.38;5004562;28;20022;-75
2024/02/22 09:26:36;;;;;;;28.65;15.05;;;;;;;5.94;71.14;94270.50;5004142;28;20022;-75
2024/02/22 09:29:02;;;;;;;28.75;16.48;;;;;;;5.78;71.03;94269.78;5004307;28;20194;-76
2024/02/22 09:31:27;;;;;;;32.05;17.77;;;;;;;5.56;71.18;94272.81;5004362;28;20034;-76
2024/02/22 09:33:54;;;;;;;32.72;17.08;;;;;;;5.75;70.70;94276.41;5003922;28;20093;-75
2024/02/22 09:36:20;;;;;;;30.88;17.10;;;;;;;5.89;70.23;94268.69;5004371;28;20019;-76
2024/02/22 09:38:45;;;;;;;45.00;19.38;;;;;;;5.93;70.76;94264.44;5004454;28;20026;-76
2024/02/22 09:41:10;;;;;;;42.00;19.27;;;;;;;5.98;70.94;94253.03;5004386;28;20400;-75
2024/02/22 09:43:36;;;;;;;31.58;17.70;;;;;;;5.97;69.44;94256.78;5002884;28;20061;-75
2024/02/22 09:46:01;;;;;;;37.25;18.80;;;;;;;5.96;69.52;94247.25;5003940;28;20053;-75
2024/02/22 09:48:27;;;;;;;38.17;20.63;;;;;;;6.04;70.22;94249.31;5004040;28;20022;-76
2024/02/22 09:50:55;;;;;;;36.47;18.42;;;;;;;6.20;71.09;94250.78;5003749;28;20312;-75
2024/02/22 09:53:22;;;;;;;32.22;18.38;;;;;;;6.28;69.96;94235.38;5003668;28;20026;-76
2024/02/22 09:55:48;;;;;;;39.95;18.10;;;;;;;6.37;70.20;94236.38;5004278;28;20021;-76
2024/02/22 09:58:14;;;;;;;37.42;17.85;;;;;;;6.52;68.97;94235.47;5004264;28;20041;-75
2024/02/22 10:00:40;;;;;;;34.42;17.63;;;;;;;6.59;68.45;94225.31;5004043;28;20260;-75
2024/02/22 10:03:05;;;;;;;31.52;16.27;;;;;;;6.67;69.03;94221.28;5003840;28;20061;-76
2024/02/22 10:05:38;;;;;;;36.17;16.42;;;;;;;6.85;69.70;94223.25;5003796;28;20014;-75
2024/02/22 10:08:10;;;;;;;;;;;;;;;6.98;67.46;94219.13;5003968;28;20037;-75
2024/02/22 10:10:35;;;;;;;;;;;;;;;6.99;67.92;94213.56;5004581;28;19912;-75
2024/02/22 10:13:03;;;;;;;31.42;14.93;;;;;;;7.08;68.40;94213.72;5003816;28;19906;-75
2024/02/22 10:15:30;;;;;;;32.15;15.85;;;;;;;7.22;68.02;94192.63;5003760;28;20026;-75
2024/02/22 10:17:55;;;;;;;38.58;16.25;;;;;;;7.14;67.92;94204.63;5003235;28;20057;-75
2024/02/22 10:20:30;;;;;;;34.83;15.57;;;;;;;7.29;67.57;94203.69;5003710;28;20027;-75
2024/02/22 10:23:07;;;;;;;34.72;18.60;;;;;;;7.46;67.38;94199.78;5003654;28;20030;-75
2024/02/22 10:25:33;;;;;;;34.33;16.15;;;;;;;7.55;66.87;94187.44;5003306;28;20045;-75
2024/02/22 10:27:59;;;;;;;37.30;18.60;;;;;;;7.33;66.13;94180.84;5003421;28;20421;-75
2024/02/22 10:30:26;;;;;;;39.58;18.02;;;;;;;7.39;66.70;94187.66;5003639;28;20034;-75
2024/02/22 10:32:55;;;;;;;41.47;19.40;;;;;;;7.64;67.45;94185.75;5003220;28;20023;-75
2024/02/22 10:35:23;;;;;;;46.03;18.60;;;;;;;7.57;66.60;94177.34;5003363;28;20026;-76
2024/02/22 10:37:53;;;;;;;36.35;18.15;;;;;;;7.61;66.87;94170.38;5002486;28;20034;-76
2024/02/22 10:40:19;;;;;;;38.75;17.42;;;;;;;7.79;66.09;94164.28;5003347;28;20026;-75
2024/02/22 10:42:45;;;;;;;44.95;17.75;;;;;;;7.82;65.78;94154.97;5003119;28;20320;-75
2024/02/22 10:45:11;;;;;;;30.85;15.07;;;;;;;7.84;64.89;94148.31;5003518;28;20018;-75
2024/02/22 10:47:38;;;;;;;34.70;19.70;;;;;;;7.86;65.26;94145.38;5007215;28;20062;-75
2024/02/22 10:50:05;;;;;;;44.75;20.38;;;;;;;7.76;65.92;94156.13;5007439;28;20046;-76
2024/02/22 10:52:34;;;;;;;48.97;21.88;;;;;;;7.80;65.81;94139.34;5006366;28;20137;-75
2024/02/22 10:55:06;;;;;;;47.28;21.95;;;;;;;7.75;66.17;94136.75;5006414;28;20053;-75
2024/02/22 10:57:33;;;;;;;42.03;20.65;;;;;;;7.62;66.53;94134.84;5005928;28;20022;-76
2024/02/22 11:00:01;;;;;;;47.92;22.17;;;;;;;7.58;67.15;94113.38;5005869;28;20030;-76
2024/02/22 11:02:29;;;;;;;44.75;20.85;;;;;;;7.59;66.38;94125.59;5006022;28;20030;-76
2024/02/22 11:05:02;;;;;;;36.92;20.17;;;;;;;7.57;67.15;94122.44;5005762;28;20026;-76
2024/02/22 11:07:30;;;;;;;50.80;21.33;;;;;;;7.71;67.11;94106.56;5005750;28;20041;-76
2024/02/22 11:10:06;;;;;;;42.72;17.50;;;;;;;7.84;66.56;94105.84;5005742;28;20097;-76
2024/02/22 11:12:33;;;;;;;49.10;19.45;;;;;;;7.90;65.09;94111.09;5006072;28;20026;-75
2024/02/22 11:15:10;;;;;;;51.72;20.52;;;;;;;7.99;65.19;94106.69;5005678;28;20022;-75
2024/02/22 11:17:36;;;;;;;35.22;16.15;;;;;;;8.13;64.47;94102.19;5005802;28;20037;-75
2024/02/22 11:20:11;;;;;;;47.05;15.48;;;;;;;8.18;63.40;94088.84;5005828;28;20076;-75
2024/02/22 11:22:37;;;;;;;36.47;17.35;;;;;;;8.26;63.25;94084.72;5005791;28;20049;-76
2024/02/22 11:25:06;;;;;;;41.80;17.88;;;;;;;8.36;63.63;94083.75;5005565;28;20089;-76
2024/02/22 11:27:32;;;;;;;39.08;18.42;;;;;;;8.46;64.22;94074.84;5005741;28;20309;-75
2024/02/22 11:29:59;;;;;;;43.53;18.38;;;;;;;8.55;64.05;94079.19;5005393;28;20022;-76